createdAt,value
2019-06-27T00:02:18.313Z,20.50
2019-06-27T00:04:45.766Z,20.27
2019-06-27T00:07:13.113Z,24.03
2019-06-27T00:09:40.416Z,21.00
2019-06-27T00:12:07.697Z,19.87
2019-06-27T00:14:34.977Z,22.63
2019-06-27T00:17:02.292Z,20.87
2019-06-27T00:19:29.629Z,22.87
2019-06-27T00:21:56.906Z,21.53
2019-06-27T00:24:24.288Z,23.07
2019-06-27T00:26:57.261Z,22.00
2019-06-27T00:29:20.585Z,20.53
2019-06-27T00:31:47.889Z,21.27
2019-06-27T00:34:15.169Z,21.70
2019-06-27T00:36:42.445Z,23.03
2019-06-27T00:39:09.747Z,21.40
2019-06-27T00:41:37.029Z,20.67
2019-06-27T00:44:04.316Z,22.60
2019-06-27T00:46:31.689Z,22.47
2019-06-27T00:48:58.989Z,21.73
2019-06-27T00:51:26.269Z,21.80
2019-06-27T00:53:53.581Z,21.83
2019-06-27T00:56:20.861Z,22.07
2019-06-27T00:58:48.139Z,23.07
2019-06-27T01:01:15.454Z,21.57
2019-06-27T01:03:42.735Z,24.83
2019-06-27T01:06:10.073Z,22.60
2019-06-27T01:08:37.392Z,23.63
2019-06-27T01:11:05.161Z,24.97
2019-06-27T01:13:32.509Z,24.20
2019-06-27T01:15:59.813Z,25.53
2019-06-27T01:18:27.089Z,24.00
2019-06-27T01:20:54.376Z,26.57
2019-06-27T01:23:21.653Z,23.60
2019-06-27T01:25:48.974Z,23.10
2019-06-27T01:28:16.330Z,23.47
2019-06-27T01:30:43.610Z,24.37
2019-06-27T01:33:10.913Z,23.30
2019-06-27T01:35:38.208Z,24.03
2019-06-27T01:38:05.552Z,24.10
2019-06-27T01:40:32.897Z,24.30
2019-06-27T01:43:00.241Z,24.20
2019-06-27T01:45:29.165Z,24.90
2019-06-27T01:47:56.489Z,25.20
2019-06-27T01:50:23.847Z,23.37
2019-06-27T01:52:51.120Z,24.83
2019-06-27T01:55:18.422Z,23.20
2019-06-27T01:57:47.272Z,24.07
2019-06-27T02:00:15.293Z,25.47
2019-06-27T02:02:42.687Z,24.00
2019-06-27T02:05:10.051Z,25.33
2019-06-27T02:07:37.394Z,26.13
2019-06-27T02:10:07.829Z,26.60
2019-06-27T02:12:35.179Z,26.77
2019-06-27T02:15:02.619Z,26.20
2019-06-27T02:17:29.932Z,25.60
2019-06-27T02:19:57.209Z,26.17
2019-06-27T02:22:24.485Z,25.13
2019-06-27T02:24:51.786Z,26.70
2019-06-27T02:27:19.197Z,28.13
2019-06-27T02:29:46.621Z,25.90
2019-06-27T02:32:13.954Z,25.57
2019-06-27T02:34:41.230Z,26.97
2019-06-27T02:37:08.507Z,27.60
2019-06-27T02:39:35.905Z,26.07
2019-06-27T02:42:03.180Z,24.83
2019-06-27T02:44:30.527Z,26.10
2019-06-27T02:46:57.902Z,25.97
2019-06-27T02:49:25.178Z,26.77
2019-06-27T02:51:52.454Z,26.37
2019-06-27T02:54:19.796Z,26.50
2019-06-27T02:56:47.142Z,27.67
2019-06-27T02:59:14.419Z,27.30
2019-06-27T03:01:41.747Z,26.97
2019-06-27T03:04:09.026Z,26.47
2019-06-27T03:06:36.335Z,26.67
2019-06-27T03:09:04.842Z,28.07
2019-06-27T03:11:32.190Z,26.80
2019-06-27T03:13:59.466Z,27.87
2019-06-27T03:16:26.926Z,27.33
2019-06-27T03:18:54.201Z,28.37
2019-06-27T03:21:21.555Z,27.60
2019-06-27T03:23:48.938Z,26.80
2019-06-27T03:26:16.375Z,26.83
2019-06-27T03:28:51.569Z,26.83
2019-06-27T03:31:12.674Z,27.40
2019-06-27T03:33:40.132Z,26.10
2019-06-27T03:36:07.647Z,25.87
2019-06-27T03:38:35.073Z,26.87
2019-06-27T03:41:02.348Z,25.90
2019-06-27T03:43:29.637Z,27.67
2019-06-27T03:45:57.018Z,27.27
2019-06-27T03:48:24.393Z,27.57
2019-06-27T03:50:55.898Z,27.33
2019-06-27T03:53:20.757Z,28.23
2019-06-27T03:55:48.513Z,27.87
2019-06-27T03:58:15.877Z,27.23
2019-06-27T04:00:43.190Z,28.77
2019-06-27T04:03:10.579Z,27.60
2019-06-27T04:05:37.862Z,25.83
2019-06-27T04:08:05.145Z,27.90
2019-06-27T04:10:32.545Z,27.67
2019-06-27T04:12:59.829Z,27.70
2019-06-27T04:15:27.109Z,27.57
2019-06-27T04:17:54.501Z,27.07
2019-06-27T04:20:21.780Z,25.27
2019-06-27T04:22:49.082Z,26.53
2019-06-27T04:25:16.463Z,26.80
2019-06-27T04:27:43.746Z,29.83
2019-06-27T04:30:11.176Z,28.40
2019-06-27T04:32:38.457Z,27.90
2019-06-27T04:35:06.507Z,29.20
2019-06-27T04:37:33.831Z,28.73
2019-06-27T04:40:01.182Z,29.50
2019-06-27T04:42:28.533Z,30.90
2019-06-27T04:44:55.890Z,32.87
2019-06-27T04:47:23.208Z,34.00
2019-06-27T04:49:50.494Z,31.73
2019-06-27T04:52:17.882Z,33.50
2019-06-27T04:54:45.204Z,29.97
2019-06-27T04:57:12.562Z,29.57
2019-06-27T04:59:52.606Z,29.83
2019-06-27T05:02:08.876Z,30.10
2019-06-27T05:04:36.237Z,31.33
2019-06-27T05:07:03.621Z,31.17
2019-06-27T05:09:30.906Z,34.00
2019-06-27T05:11:58.341Z,33.50
2019-06-27T05:14:25.704Z,31.07
2019-06-27T05:16:52.989Z,27.17
2019-06-27T05:19:20.265Z,27.47
2019-06-27T05:21:47.646Z,32.53
2019-06-27T05:24:14.926Z,34.17
2019-06-27T05:26:42.207Z,30.30
2019-06-27T05:29:09.580Z,41.73
2019-06-27T05:31:36.933Z,28.57
2019-06-27T05:34:04.284Z,28.27
2019-06-27T05:36:31.601Z,40.90
2019-06-27T05:38:58.902Z,37.23
2019-06-27T05:41:26.186Z,39.33
2019-06-27T05:43:53.548Z,42.77
2019-06-27T05:46:20.837Z,41.47
2019-06-27T05:48:48.121Z,33.63
2019-06-27T05:51:15.420Z,34.20
2019-06-27T05:53:45.593Z,33.03
2019-06-27T05:56:11.706Z,28.60
2019-06-27T05:58:39.012Z,34.33
2019-06-27T06:01:06.346Z,31.10
2019-06-27T06:03:33.636Z,31.80
2019-06-27T06:06:00.959Z,27.37
2019-06-27T06:08:28.236Z,27.30
2019-06-27T06:10:55.515Z,33.43
2019-06-27T06:13:22.844Z,24.43
2019-06-27T06:15:50.253Z,38.63
2019-06-27T06:18:17.526Z,24.73
2019-06-27T06:20:44.849Z,24.03
2019-06-27T06:23:12.144Z,23.50
2019-06-27T06:25:39.551Z,23.00
2019-06-27T06:28:06.864Z,25.83
2019-06-27T06:30:43.958Z,25.80
2019-06-27T06:33:03.128Z,23.57
2019-06-27T06:35:30.457Z,31.60
2019-06-27T06:37:57.839Z,23.87
2019-06-27T06:40:25.410Z,24.80
2019-06-27T06:42:56.849Z,21.93
2019-06-27T06:45:21.913Z,22.00
2019-06-27T06:47:49.185Z,21.80
2019-06-27T06:50:16.497Z,29.30
2019-06-27T06:52:43.990Z,20.87
2019-06-27T06:55:11.502Z,21.73
2019-06-27T06:57:39.917Z,21.03
2019-06-27T07:00:08.980Z,38.10
2019-06-27T07:02:36.394Z,25.07
2019-06-27T07:05:04.067Z,23.00
2019-06-27T07:07:31.343Z,24.90
2019-06-27T07:09:58.629Z,21.90
2019-06-27T07:12:26.093Z,26.00
2019-06-27T07:14:53.376Z,22.47
2019-06-27T07:17:20.693Z,27.70
2019-06-27T07:19:48.092Z,29.90
2019-06-27T07:22:15.361Z,22.43
2019-06-27T07:24:42.629Z,23.93
2019-06-27T07:27:10.078Z,19.90
2019-06-27T07:29:37.359Z,22.77
2019-06-27T07:32:04.686Z,26.57
2019-06-27T07:34:31.972Z,22.00
2019-06-27T07:36:59.321Z,21.00
2019-06-27T07:39:26.939Z,19.43
2019-06-27T07:41:54.297Z,19.80
2019-06-27T07:44:21.637Z,21.23
2019-06-27T07:46:48.957Z,20.43
2019-06-27T07:49:16.303Z,25.77
2019-06-27T07:51:43.607Z,20.80
2019-06-27T07:54:10.922Z,21.47
2019-06-27T07:56:38.269Z,22.07
2019-06-27T07:59:05.559Z,21.80
2019-06-27T08:01:35.679Z,25.73
2019-06-27T08:04:02.279Z,24.33
2019-06-27T08:06:29.610Z,18.80
2019-06-27T08:08:56.892Z,18.47
2019-06-27T08:11:24.157Z,17.57
2019-06-27T08:13:51.572Z,20.20
2019-06-27T08:16:18.920Z,19.53
2019-06-27T08:18:46.198Z,18.73
2019-06-27T08:21:13.582Z,16.77
2019-06-27T08:23:42.034Z,32.00
2019-06-27T08:26:09.620Z,19.10
2019-06-27T08:28:36.931Z,16.50
2019-06-27T08:31:04.273Z,17.60
2019-06-27T08:33:31.549Z,17.50
2019-06-27T08:35:58.873Z,19.07
2019-06-27T08:38:26.153Z,18.00
2019-06-27T08:40:53.428Z,21.20
2019-06-27T08:43:20.738Z,18.53
2019-06-27T08:45:48.089Z,18.77
2019-06-27T08:48:15.445Z,18.17
2019-06-27T08:50:42.749Z,24.30
2019-06-27T08:53:10.031Z,20.77
2019-06-27T08:55:37.411Z,16.87
2019-06-27T08:58:04.759Z,21.23
2019-06-27T09:00:32.262Z,16.13
2019-06-27T09:02:59.629Z,17.30
2019-06-27T09:05:26.952Z,17.80
2019-06-27T09:07:54.230Z,17.10
2019-06-27T09:10:21.678Z,17.10
2019-06-27T09:12:48.990Z,24.50
2019-06-27T09:15:17.292Z,13.80
2019-06-27T09:17:44.572Z,20.20
2019-06-27T09:20:12.252Z,16.40
2019-06-27T09:22:39.517Z,15.03
2019-06-27T09:25:07.169Z,16.27
2019-06-27T09:27:34.775Z,19.33
2019-06-27T09:30:02.124Z,21.77
2019-06-27T09:32:29.524Z,17.67
2019-06-27T09:34:56.808Z,15.10
2019-06-27T09:37:24.101Z,14.23
2019-06-27T09:39:51.406Z,16.50
2019-06-27T09:42:18.690Z,14.60
2019-06-27T09:44:46.034Z,17.03
2019-06-27T09:47:13.339Z,17.33
2019-06-27T09:49:40.635Z,15.50
2019-06-27T09:52:07.976Z,15.33
2019-06-27T09:54:35.281Z,14.17
2019-06-27T09:57:02.637Z,14.90
2019-06-27T09:59:29.910Z,14.57
2019-06-27T10:01:57.217Z,15.53
2019-06-27T10:04:24.517Z,14.33
2019-06-27T10:06:51.845Z,14.97
2019-06-27T10:09:19.157Z,14.97
2019-06-27T10:11:46.437Z,20.87
2019-06-27T10:14:13.720Z,13.70
2019-06-27T10:16:41.004Z,15.60
2019-06-27T10:19:08.372Z,18.40
2019-06-27T10:21:35.665Z,13.50
2019-06-27T10:24:03.121Z,14.13
2019-06-27T10:26:30.460Z,16.77
2019-06-27T10:28:57.833Z,13.53
2019-06-27T10:31:25.172Z,14.60
2019-06-27T10:33:52.525Z,12.40
2019-06-27T10:36:19.829Z,15.23
2019-06-27T10:38:47.183Z,13.77
2019-06-27T10:41:14.557Z,20.10
2019-06-27T10:43:41.900Z,14.30
2019-06-27T10:46:09.172Z,14.37
2019-06-27T10:48:36.511Z,11.40
2019-06-27T10:51:03.860Z,15.20
2019-06-27T10:53:31.134Z,11.97
2019-06-27T10:55:58.451Z,20.53
2019-06-27T10:58:25.786Z,15.57
2019-06-27T11:00:53.323Z,12.57
2019-06-27T11:03:20.618Z,13.87
2019-06-27T11:05:47.998Z,14.33
2019-06-27T11:08:15.377Z,14.33
2019-06-27T11:10:42.657Z,13.23
2019-06-27T11:13:09.937Z,13.93
2019-06-27T11:15:37.312Z,14.13
2019-06-27T11:18:04.661Z,11.50
2019-06-27T11:20:31.954Z,14.07
2019-06-27T11:22:59.310Z,12.17
2019-06-27T11:25:26.616Z,15.40
2019-06-27T11:27:53.882Z,14.13
2019-06-27T11:30:21.280Z,20.07
2019-06-27T11:32:48.561Z,11.63
2019-06-27T11:35:15.841Z,14.87
2019-06-27T11:37:43.133Z,16.63
2019-06-27T11:40:12.250Z,13.27
2019-06-27T11:42:39.957Z,14.10
2019-06-27T11:45:07.522Z,16.47
2019-06-27T11:47:34.983Z,14.90
2019-06-27T11:50:02.297Z,15.80
2019-06-27T11:52:29.741Z,14.73
2019-06-27T11:54:57.015Z,11.43
2019-06-27T11:57:24.332Z,14.93
2019-06-27T11:59:51.751Z,11.60
2019-06-27T12:02:19.097Z,11.50
2019-06-27T12:04:46.402Z,15.00
2019-06-27T12:07:13.696Z,16.77
2019-06-27T12:09:41.059Z,14.30
2019-06-27T12:12:08.444Z,15.63
2019-06-27T12:14:35.717Z,11.93
2019-06-27T12:17:03.000Z,10.90
2019-06-27T12:19:30.296Z,14.53
2019-06-27T12:21:57.577Z,15.57
2019-06-27T12:24:24.942Z,10.97
2019-06-27T12:26:52.336Z,21.10
2019-06-27T12:29:19.815Z,12.90
2019-06-27T12:31:47.081Z,13.37
2019-06-27T12:34:14.428Z,11.37
2019-06-27T12:36:41.781Z,15.60
2019-06-27T12:39:09.115Z,14.30
2019-06-27T12:41:36.492Z,10.90
2019-06-27T12:44:03.789Z,15.13
2019-06-27T12:46:31.101Z,10.17
2019-06-27T12:48:58.418Z,12.70
2019-06-27T12:51:25.785Z,11.83
2019-06-27T12:53:55.727Z,15.90
2019-06-27T12:56:22.082Z,10.50
2019-06-27T12:58:49.490Z,14.20
2019-06-27T13:01:16.830Z,12.57
2019-06-27T13:03:44.150Z,13.53
2019-06-27T13:06:11.420Z,20.07
2019-06-27T13:08:38.729Z,16.20
2019-06-27T13:11:06.005Z,15.97
2019-06-27T13:13:33.280Z,9.87
2019-06-27T13:16:00.594Z,11.90
2019-06-27T13:18:27.872Z,15.37
2019-06-27T13:20:58.214Z,16.47
2019-06-27T13:23:24.249Z,16.33
2019-06-27T13:25:51.589Z,15.60
2019-06-27T13:28:18.872Z,13.60
2019-06-27T13:30:46.177Z,16.37
2019-06-27T13:33:13.448Z,13.07
2019-06-27T13:35:40.724Z,13.93
2019-06-27T13:38:08.105Z,17.73
2019-06-27T13:40:35.449Z,18.40
2019-06-27T13:43:02.792Z,14.63
2019-06-27T13:45:30.113Z,15.10
2019-06-27T13:47:57.438Z,13.33
2019-06-27T13:50:24.731Z,16.60
2019-06-27T13:52:54.637Z,16.33
2019-06-27T13:55:23.914Z,20.90
2019-06-27T13:57:50.189Z,15.00
2019-06-27T14:00:19.041Z,18.77
2019-06-27T14:02:46.360Z,13.17
2019-06-27T14:05:13.784Z,16.03
2019-06-27T14:07:41.079Z,11.13
2019-06-27T14:10:08.725Z,16.87
2019-06-27T14:12:36.088Z,12.30
2019-06-27T14:15:04.859Z,18.97
2019-06-27T14:17:32.128Z,19.80
2019-06-27T14:19:59.432Z,18.93
2019-06-27T14:22:33.641Z,14.67
2019-06-27T14:24:55.705Z,15.80
2019-06-27T14:27:23.001Z,14.10
2019-06-27T14:29:50.284Z,18.30
2019-06-27T14:32:17.574Z,14.70
2019-06-27T14:34:44.894Z,17.33
2019-06-27T14:37:12.170Z,15.67
2019-06-27T14:39:40.577Z,17.43
2019-06-27T14:42:07.877Z,16.90
2019-06-27T14:44:35.153Z,15.50
2019-06-27T14:47:02.436Z,16.20
2019-06-27T14:49:29.762Z,15.03
2019-06-27T14:51:57.109Z,15.27
2019-06-27T14:54:24.396Z,14.73
2019-06-27T14:56:51.700Z,17.57
2019-06-27T14:59:18.972Z,15.87
2019-06-27T15:01:46.326Z,15.30
2019-06-27T15:04:13.999Z,15.90
2019-06-27T15:06:41.297Z,16.07
2019-06-27T15:09:08.624Z,16.40
2019-06-27T15:11:36.005Z,16.17
2019-06-27T15:14:03.313Z,14.33
2019-06-27T15:16:30.796Z,14.63
2019-06-27T15:18:58.093Z,14.10
2019-06-27T15:21:25.404Z,17.17
2019-06-27T15:23:52.854Z,16.40
2019-06-27T15:26:20.317Z,14.37
2019-06-27T15:28:47.667Z,14.63
2019-06-27T15:31:15.028Z,13.67
2019-06-27T15:33:42.420Z,18.60
2019-06-27T15:36:09.742Z,14.87
2019-06-27T15:38:37.082Z,24.20
2019-06-27T15:41:04.429Z,16.23
2019-06-27T15:43:31.797Z,20.80
2019-06-27T15:45:59.065Z,12.43
2019-06-27T15:48:26.400Z,14.20
2019-06-27T15:50:53.744Z,15.73
2019-06-27T15:53:21.125Z,14.13
2019-06-27T15:55:48.502Z,14.63
2019-06-27T15:58:15.778Z,16.27
2019-06-27T16:00:43.062Z,17.30
2019-06-27T16:03:10.360Z,15.60
2019-06-27T16:05:37.750Z,14.20
2019-06-27T16:08:05.145Z,12.30
2019-06-27T16:10:32.458Z,14.03
2019-06-27T16:13:02.367Z,12.40
2019-06-27T16:15:28.741Z,13.17
2019-06-27T16:17:56.038Z,13.73
2019-06-27T16:20:24.581Z,13.73
2019-06-27T16:22:51.857Z,12.97
2019-06-27T16:25:19.227Z,13.10
2019-06-27T16:27:46.526Z,17.87
2019-06-27T16:30:14.385Z,16.00
2019-06-27T16:32:41.859Z,12.23
2019-06-27T16:35:09.343Z,13.10
2019-06-27T16:37:36.616Z,13.03
2019-06-27T16:40:07.190Z,12.60
2019-06-27T16:42:34.541Z,16.40
2019-06-27T16:45:01.866Z,14.93
2019-06-27T16:47:29.316Z,14.10
2019-06-27T16:49:56.653Z,13.50
2019-06-27T16:52:23.944Z,21.70
2019-06-27T16:54:51.318Z,14.90
2019-06-27T16:57:18.670Z,17.60
2019-06-27T16:59:45.986Z,14.47
2019-06-27T17:02:13.409Z,12.07
2019-06-27T17:04:40.696Z,13.10
2019-06-27T17:07:07.964Z,16.33
2019-06-27T17:09:35.277Z,14.23
2019-06-27T17:12:02.548Z,14.47
2019-06-27T17:14:29.828Z,15.30
2019-06-27T17:16:57.137Z,17.40
2019-06-27T17:19:24.498Z,16.20
2019-06-27T17:21:51.828Z,13.53
2019-06-27T17:24:19.246Z,16.27
2019-06-27T17:26:46.615Z,15.93
2019-06-27T17:29:14.723Z,22.80
2019-06-27T17:31:42.217Z,14.27
2019-06-27T17:34:09.716Z,16.03
2019-06-27T17:36:37.002Z,14.37
2019-06-27T17:39:04.373Z,14.87
2019-06-27T17:41:31.649Z,15.43
2019-06-27T17:43:58.957Z,14.67
2019-06-27T17:46:26.268Z,15.30
2019-06-27T17:48:53.541Z,14.97
2019-06-27T17:51:20.823Z,18.53
2019-06-27T17:53:48.160Z,14.40
2019-06-27T17:56:16.405Z,16.03
2019-06-27T17:58:43.691Z,16.80
2019-06-27T18:01:11.077Z,16.87
2019-06-27T18:03:38.353Z,14.73
2019-06-27T18:06:05.680Z,17.27
2019-06-27T18:08:33.240Z,16.40
2019-06-27T18:11:00.525Z,15.77
2019-06-27T18:13:27.805Z,16.00
2019-06-27T18:15:55.247Z,16.83
2019-06-27T18:18:22.556Z,15.40
2019-06-27T18:20:49.841Z,16.80
2019-06-27T18:23:17.183Z,15.10
2019-06-27T18:25:44.520Z,19.73
2019-06-27T18:28:11.852Z,15.77
2019-06-27T18:30:39.154Z,14.70
2019-06-27T18:33:06.439Z,18.60
2019-06-27T18:35:33.713Z,16.07
2019-06-27T18:38:01.035Z,15.03
2019-06-27T18:40:28.300Z,14.70
2019-06-27T18:42:55.576Z,15.83
2019-06-27T18:45:23.265Z,15.90
2019-06-27T18:47:50.688Z,20.20
2019-06-27T18:50:18.049Z,14.90
2019-06-27T18:52:45.381Z,19.70
2019-06-27T18:55:12.761Z,16.47
2019-06-27T18:57:40.169Z,16.60
2019-06-27T19:00:07.960Z,17.33
2019-06-27T19:02:35.302Z,15.70
2019-06-27T19:05:05.349Z,15.30
2019-06-27T19:07:44.532Z,19.97
2019-06-27T19:10:00.693Z,16.13
2019-06-27T19:12:27.973Z,16.37
2019-06-27T19:14:55.288Z,16.93
2019-06-27T19:17:22.579Z,16.20
2019-06-27T19:19:51.528Z,19.53
2019-06-27T19:22:20.514Z,16.80
2019-06-27T19:24:50.850Z,17.67
2019-06-27T19:27:18.117Z,19.80
2019-06-27T19:29:45.433Z,17.23
2019-06-27T19:32:12.718Z,16.40
2019-06-27T19:34:40.000Z,16.40
2019-06-27T19:37:07.333Z,18.20
2019-06-27T19:39:34.672Z,17.50
2019-06-27T19:42:01.957Z,15.70
2019-06-27T19:44:29.250Z,17.33
2019-06-27T19:46:56.689Z,17.73
2019-06-27T19:49:23.969Z,22.17
2019-06-27T19:51:51.263Z,17.50
2019-06-27T19:54:18.556Z,17.70
2019-06-27T19:56:45.962Z,16.53
2019-06-27T19:59:13.269Z,22.70
2019-06-27T20:01:40.702Z,18.07
2019-06-27T20:04:08.111Z,18.73
2019-06-27T20:06:35.402Z,17.17
2019-06-27T20:09:02.757Z,18.80
2019-06-27T20:11:30.053Z,20.07
2019-06-27T20:13:57.432Z,18.97
2019-06-27T20:16:24.713Z,22.03
2019-06-27T20:18:52.477Z,17.57
2019-06-27T20:21:19.788Z,17.50
2019-06-27T20:23:47.172Z,18.10
2019-06-27T20:26:14.445Z,18.23
2019-06-27T20:28:41.744Z,18.57
2019-06-27T20:31:09.056Z,22.60
2019-06-27T20:33:37.728Z,18.70
2019-06-27T20:36:05.023Z,17.83
2019-06-27T20:38:35.299Z,18.47
2019-06-27T20:41:01.395Z,18.27
2019-06-27T20:43:28.681Z,18.50
2019-06-27T20:45:55.965Z,21.17
2019-06-27T20:48:23.342Z,18.30
2019-06-27T20:50:50.952Z,18.57
2019-06-27T20:53:18.220Z,18.97
2019-06-27T20:55:45.636Z,18.70
2019-06-27T20:58:13.018Z,19.83
2019-06-27T21:00:40.457Z,21.30
2019-06-27T21:03:07.808Z,22.77
2019-06-27T21:05:35.081Z,19.23
2019-06-27T21:08:02.448Z,22.17
2019-06-27T21:10:29.737Z,22.13
2019-06-27T21:12:57.068Z,19.53
2019-06-27T21:15:24.368Z,21.30
2019-06-27T21:17:51.718Z,18.93
2019-06-27T21:20:19.033Z,20.97
2019-06-27T21:22:47.849Z,20.07
2019-06-27T21:25:15.202Z,19.63
2019-06-27T21:27:42.580Z,18.90
2019-06-27T21:30:10.122Z,19.87
2019-06-27T21:32:37.461Z,19.93
2019-06-27T21:35:05.930Z,20.40
2019-06-27T21:37:33.298Z,19.53
2019-06-27T21:40:00.574Z,22.27
2019-06-27T21:42:27.955Z,21.40
2019-06-27T21:44:55.331Z,20.30
2019-06-27T21:47:22.668Z,22.80
2019-06-27T21:49:49.956Z,21.97
2019-06-27T21:52:17.335Z,21.90
2019-06-27T21:54:44.616Z,21.30
2019-06-27T21:57:11.894Z,19.87
2019-06-27T21:59:39.217Z,24.97
2019-06-27T22:02:06.575Z,22.83
2019-06-27T22:04:33.844Z,21.83
2019-06-27T22:07:01.174Z,26.20
2019-06-27T22:09:28.517Z,19.50
2019-06-27T22:11:55.812Z,19.57
2019-06-27T22:14:23.174Z,20.47
2019-06-27T22:16:50.457Z,20.57
2019-06-27T22:19:17.807Z,22.27
2019-06-27T22:21:45.112Z,26.80
2019-06-27T22:24:12.465Z,20.93
2019-06-27T22:26:39.736Z,21.73
2019-06-27T22:29:07.139Z,21.70
2019-06-27T22:31:34.425Z,27.47
2019-06-27T22:34:01.706Z,21.77
2019-06-27T22:36:29.795Z,24.73
2019-06-27T22:39:14.821Z,25.30
2019-06-27T22:41:59.825Z,18.73
2019-06-27T22:44:44.775Z,20.73
2019-06-27T22:47:30.245Z,19.60
2019-06-27T22:49:57.305Z,25.13
2019-06-27T22:52:26.227Z,18.73
2019-06-27T22:54:55.196Z,17.90
2019-06-27T22:57:22.484Z,19.00
2019-06-27T22:59:49.880Z,14.53
2019-06-27T23:02:17.269Z,15.40
2019-06-27T23:04:44.548Z,15.50
2019-06-27T23:07:11.832Z,18.67
2019-06-27T23:09:39.141Z,15.63
2019-06-27T23:12:06.479Z,15.70
2019-06-27T23:14:33.761Z,14.63
2019-06-27T23:17:01.080Z,29.83
2019-06-27T23:19:28.428Z,13.77
2019-06-27T23:21:55.842Z,16.20
2019-06-27T23:24:23.241Z,14.40
2019-06-27T23:26:50.519Z,15.17
2019-06-27T23:29:17.800Z,14.40
2019-06-27T23:31:45.101Z,19.73
2019-06-27T23:34:12.449Z,12.63
2019-06-27T23:36:39.734Z,16.60
2019-06-27T23:39:07.024Z,16.43
2019-06-27T23:41:34.320Z,16.73
2019-06-27T23:44:01.591Z,13.37
2019-06-27T23:46:36.244Z,14.67
2019-06-27T23:49:03.521Z,14.73
2019-06-27T23:51:30.801Z,18.60
2019-06-27T23:53:58.119Z,16.00
2019-06-27T23:56:25.394Z,13.27
2019-06-27T23:58:52.660Z,14.07
